sensor_id;sensor_type;location;lat;lon;timestamp;P1;durP1;ratioP1;P2;durP2;ratioP2
23336;SDS011;11840;45.414;12.372;2022-11-18T00:00:50;41.95;;;27.80;;
23336;SDS011;11840;45.414;12.372;2022-11-18T00:03:16;41.78;;;27.40;;
23336;SDS011;11840;45.414;12.372;2022-11-18T00:05:50;44.90;;;27.70;;
23336;SDS011;11840;45.414;12.372;2022-11-18T00:08:17;41.40;;;26.88;;
23336;SDS011;11840;45.414;12.372;2022-11-18T00:10:42;42.97;;;27.95;;
23336;SDS011;11840;45.414;12.372;2022-11-18T00:13:10;38.38;;;26.23;;
23336;SDS011;11840;45.414;12.372;2022-11-18T00:15:59;39.10;;;25.30;;
23336;SDS011;11840;45.414;12.372;2022-11-18T00:18:25;37.03;;;25.15;;
23336;SDS011;11840;45.414;12.372;2022-11-18T00:20:51;37.45;;;25.25;;
23336;SDS011;11840;45.414;12.372;2022-11-18T00:23:18;38.60;;;26.17;;
23336;SDS011;11840;45.414;12.372;2022-11-18T00:25:44;41.10;;;27.60;;
23336;SDS011;11840;45.414;12.372;2022-11-18T00:28:11;35.72;;;25.40;;
23336;SDS011;11840;45.414;12.372;2022-11-18T00:30:36;38.08;;;25.77;;
23336;SDS011;11840;45.414;12.372;2022-11-18T00:33:02;35.50;;;25.88;;
23336;SDS011;11840;45.414;12.372;2022-11-18T00:35:29;43.08;;;28.20;;
23336;SDS011;11840;45.414;12.372;2022-11-18T00:37:55;37.90;;;25.67;;
23336;SDS011;11840;45.414;12.372;2022-11-18T00:40:22;38.20;;;26.63;;
23336;SDS011;11840;45.414;12.372;2022-11-18T00:42:48;40.55;;;26.38;;
23336;SDS011;11840;45.414;12.372;2022-11-18T00:45:17;38.35;;;25.27;;
23336;SDS011;11840;45.414;12.372;2022-11-18T00:47:43;37.10;;;24.27;;
23336;SDS011;11840;45.414;12.372;2022-11-18T00:50:10;38.53;;;26.90;;
23336;SDS011;11840;45.414;12.372;2022-11-18T00:52:36;35.55;;;24.85;;
23336;SDS011;11840;45.414;12.372;2022-11-18T00:55:02;36.70;;;25.02;;
23336;SDS011;11840;45.414;12.372;2022-11-18T00:57:29;36.08;;;24.80;;
23336;SDS011;11840;45.414;12.372;2022-11-18T00:59:55;39.58;;;24.50;;
23336;SDS011;11840;45.414;12.372;2022-11-18T01:02:21;35.50;;;24.70;;
23336;SDS011;11840;45.414;12.372;2022-11-18T01:04:46;33.22;;;24.17;;
23336;SDS011;11840;45.414;12.372;2022-11-18T01:07:13;36.22;;;24.38;;
23336;SDS011;11840;45.414;12.372;2022-11-18T01:09:39;35.72;;;24.95;;
23336;SDS011;11840;45.414;12.372;2022-11-18T01:12:06;31.77;;;23.17;;
23336;SDS011;11840;45.414;12.372;2022-11-18T01:14:50;35.58;;;24.27;;
23336;SDS011;11840;45.414;12.372;2022-11-18T01:17:16;32.97;;;23.23;;
23336;SDS011;11840;45.414;12.372;2022-11-18T01:19:42;35.55;;;23.85;;
23336;SDS011;11840;45.414;12.372;2022-11-18T01:22:08;34.17;;;23.35;;
23336;SDS011;11840;45.414;12.372;2022-11-18T01:24:34;33.55;;;22.92;;
23336;SDS011;11840;45.414;12.372;2022-11-18T01:27:01;31.92;;;23.30;;
23336;SDS011;11840;45.414;12.372;2022-11-18T01:29:27;34.10;;;23.10;;
23336;SDS011;11840;45.414;12.372;2022-11-18T01:31:53;37.20;;;24.95;;
23336;SDS011;11840;45.414;12.372;2022-11-18T08:36:36;25.67;;;20.45;;
23336;SDS011;11840;45.414;12.372;2022-11-18T08:39:03;24.95;;;19.98;;
23336;SDS011;11840;45.414;12.372;2022-11-18T08:41:37;27.70;;;20.65;;
23336;SDS011;11840;45.414;12.372;2022-11-18T08:44:03;25.70;;;19.03;;
23336;SDS011;11840;45.414;12.372;2022-11-18T08:46:29;24.33;;;19.00;;
23336;SDS011;11840;45.414;12.372;2022-11-18T08:48:55;24.48;;;17.42;;
23336;SDS011;11840;45.414;12.372;2022-11-18T08:51:20;23.27;;;18.67;;
23336;SDS011;11840;45.414;12.372;2022-11-18T08:53:46;23.60;;;17.80;;
23336;SDS011;11840;45.414;12.372;2022-11-18T08:56:13;22.92;;;17.98;;
23336;SDS011;11840;45.414;12.372;2022-11-18T08:58:40;21.80;;;17.17;;
23336;SDS011;11840;45.414;12.372;2022-11-18T09:01:06;21.17;;;16.83;;
23336;SDS011;11840;45.414;12.372;2022-11-18T09:03:32;19.73;;;16.02;;
23336;SDS011;11840;45.414;12.372;2022-11-18T09:06:31;21.27;;;16.33;;
23336;SDS011;11840;45.414;12.372;2022-11-18T09:08:51;22.48;;;16.92;;
23336;SDS011;11840;45.414;12.372;2022-11-18T09:11:18;22.90;;;16.45;;
23336;SDS011;11840;45.414;12.372;2022-11-18T09:13:44;23.65;;;16.63;;
23336;SDS011;11840;45.414;12.372;2022-11-18T09:16:10;27.55;;;18.80;;
23336;SDS011;11840;45.414;12.372;2022-11-18T09:18:37;23.88;;;18.73;;
23336;SDS011;11840;45.414;12.372;2022-11-18T09:21:04;29.33;;;20.40;;
23336;SDS011;11840;45.414;12.372;2022-11-18T09:23:31;26.80;;;20.38;;
23336;SDS011;11840;45.414;12.372;2022-11-18T09:25:58;27.10;;;20.98;;
23336;SDS011;11840;45.414;12.372;2022-11-18T09:28:24;26.40;;;21.27;;
23336;SDS011;11840;45.414;12.372;2022-11-18T09:30:50;27.60;;;20.80;;
23336;SDS011;11840;45.414;12.372;2022-11-18T09:33:16;25.45;;;20.10;;
23336;SDS011;11840;45.414;12.372;2022-11-18T09:35:42;26.17;;;19.23;;
23336;SDS011;11840;45.414;12.372;2022-11-18T09:38:09;26.13;;;19.80;;
23336;SDS011;11840;45.414;12.372;2022-11-18T09:43:37;26.75;;;21.05;;
23336;SDS011;11840;45.414;12.372;2022-11-18T09:46:29;25.67;;;19.50;;
23336;SDS011;11840;45.414;12.372;2022-11-18T09:48:57;24.90;;;19.13;;
23336;SDS011;11840;45.414;12.372;2022-11-18T09:51:38;26.50;;;20.52;;
23336;SDS011;11840;45.414;12.372;2022-11-18T09:54:06;25.17;;;20.17;;
23336;SDS011;11840;45.414;12.372;2022-11-18T09:56:33;26.75;;;21.13;;
23336;SDS011;11840;45.414;12.372;2022-11-18T09:58:59;29.67;;;23.05;;
23336;SDS011;11840;45.414;12.372;2022-11-18T10:01:25;33.58;;;23.27;;
23336;SDS011;11840;45.414;12.372;2022-11-18T10:03:51;34.03;;;25.17;;
23336;SDS011;11840;45.414;12.372;2022-11-18T10:06:24;34.22;;;25.35;;
23336;SDS011;11840;45.414;12.372;2022-11-18T10:09:07;34.50;;;27.00;;
23336;SDS011;11840;45.414;12.372;2022-11-18T10:19:42;40.45;;;29.67;;
23336;SDS011;11840;45.414;12.372;2022-11-18T10:24:44;40.15;;;29.38;;
23336;SDS011;11840;45.414;12.372;2022-11-18T10:27:14;43.42;;;29.63;;
23336;SDS011;11840;45.414;12.372;2022-11-18T10:29:41;41.20;;;31.48;;
23336;SDS011;11840;45.414;12.372;2022-11-18T10:32:10;45.28;;;33.30;;
23336;SDS011;11840;45.414;12.372;2022-11-18T10:39:59;42.15;;;30.85;;
23336;SDS011;11840;45.414;12.372;2022-11-18T10:42:33;41.90;;;30.92;;
23336;SDS011;11840;45.414;12.372;2022-11-18T10:47:29;43.53;;;30.70;;
23336;SDS011;11840;45.414;12.372;2022-11-18T10:49:59;41.97;;;31.85;;
23336;SDS011;11840;45.414;12.372;2022-11-18T10:52:25;40.80;;;30.25;;
23336;SDS011;11840;45.414;12.372;2022-11-18T10:55:37;44.72;;;32.17;;
23336;SDS011;11840;45.414;12.372;2022-11-18T10:57:41;43.85;;;32.55;;
23336;SDS011;11840;45.414;12.372;2022-11-18T11:02:54;44.65;;;32.75;;
23336;SDS011;11840;45.414;12.372;2022-11-18T11:05:21;43.40;;;32.63;;
23336;SDS011;11840;45.414;12.372;2022-11-18T11:08:03;45.83;;;32.67;;
23336;SDS011;11840;45.414;12.372;2022-11-18T11:10:30;42.33;;;31.45;;
23336;SDS011;11840;45.414;12.372;2022-11-18T11:12:59;44.53;;;33.45;;
23336;SDS011;11840;45.414;12.372;2022-11-18T11:18:00;42.28;;;31.55;;
23336;SDS011;11840;45.414;12.372;2022-11-18T11:20:45;42.80;;;32.30;;
23336;SDS011;11840;45.414;12.372;2022-11-18T11:23:12;44.05;;;31.30;;
23336;SDS011;11840;45.414;12.372;2022-11-18T11:25:42;42.15;;;31.35;;
23336;SDS011;11840;45.414;12.372;2022-11-18T11:28:19;41.83;;;31.17;;
23336;SDS011;11840;45.414;12.372;2022-11-18T11:33:37;47.83;;;33.38;;
23336;SDS011;11840;45.414;12.372;2022-11-18T11:41:15;44.45;;;33.13;;
23336;SDS011;11840;45.414;12.372;2022-11-18T11:44:06;43.22;;;32.05;;
23336;SDS011;11840;45.414;12.372;2022-11-18T11:51:29;46.25;;;33.33;;
23336;SDS011;11840;45.414;12.372;2022-11-18T11:59:15;44.55;;;32.75;;
23336;SDS011;11840;45.414;12.372;2022-11-18T12:01:53;43.97;;;31.27;;
23336;SDS011;11840;45.414;12.372;2022-11-18T12:06:51;47.78;;;32.03;;
23336;SDS011;11840;45.414;12.372;2022-11-18T12:09:26;44.78;;;32.15;;
23336;SDS011;11840;45.414;12.372;2022-11-18T12:14:46;46.70;;;32.85;;
23336;SDS011;11840;45.414;12.372;2022-11-18T12:17:22;44.85;;;32.55;;
23336;SDS011;11840;45.414;12.372;2022-11-18T12:19:50;46.17;;;33.70;;
23336;SDS011;11840;45.414;12.372;2022-11-18T12:22:16;50.65;;;34.40;;
23336;SDS011;11840;45.414;12.372;2022-11-18T12:24:42;53.45;;;34.97;;
23336;SDS011;11840;45.414;12.372;2022-11-18T12:29:35;49.28;;;33.13;;
23336;SDS011;11840;45.414;12.372;2022-11-18T12:32:01;49.50;;;31.90;;
23336;SDS011;11840;45.414;12.372;2022-11-18T12:34:31;45.53;;;32.20;;
23336;SDS011;11840;45.414;12.372;2022-11-18T12:37:36;53.13;;;34.30;;
23336;SDS011;11840;45.414;12.372;2022-11-18T12:42:32;44.63;;;31.40;;
23336;SDS011;11840;45.414;12.372;2022-11-18T12:47:58;44.90;;;30.38;;
23336;SDS011;11840;45.414;12.372;2022-11-18T12:50:45;51.63;;;32.38;;
23336;SDS011;11840;45.414;12.372;2022-11-18T12:53:09;48.33;;;33.17;;
23336;SDS011;11840;45.414;12.372;2022-11-18T12:55:36;48.95;;;32.67;;
23336;SDS011;11840;45.414;12.372;2022-11-18T12:58:02;49.38;;;32.28;;
23336;SDS011;11840;45.414;12.372;2022-11-18T13:00:29;52.78;;;33.88;;
23336;SDS011;11840;45.414;12.372;2022-11-18T13:02:59;50.42;;;33.38;;
23336;SDS011;11840;45.414;12.372;2022-11-18T13:05:29;49.25;;;33.70;;
23336;SDS011;11840;45.414;12.372;2022-11-18T13:08:05;48.72;;;32.30;;
23336;SDS011;11840;45.414;12.372;2022-11-18T13:10:53;49.28;;;31.77;;
23336;SDS011;11840;45.414;12.372;2022-11-18T13:13:40;45.92;;;32.13;;
23336;SDS011;11840;45.414;12.372;2022-11-18T13:16:27;47.50;;;32.15;;
23336;SDS011;11840;45.414;12.372;2022-11-18T13:19:19;48.97;;;31.58;;
23336;SDS011;11840;45.414;12.372;2022-11-18T13:21:46;45.38;;;32.03;;
23336;SDS011;11840;45.414;12.372;2022-11-18T13:24:41;47.63;;;32.88;;
23336;SDS011;11840;45.414;12.372;2022-11-18T13:27:07;51.88;;;33.03;;
23336;SDS011;11840;45.414;12.372;2022-11-18T13:29:41;47.60;;;32.22;;
23336;SDS011;11840;45.414;12.372;2022-11-18T13:34:41;48.80;;;32.75;;
23336;SDS011;11840;45.414;12.372;2022-11-18T13:37:14;47.25;;;32.22;;
23336;SDS011;11840;45.414;12.372;2022-11-18T13:39:41;58.22;;;32.45;;
23336;SDS011;11840;45.414;12.372;2022-11-18T13:44:59;44.55;;;30.38;;
23336;SDS011;11840;45.414;12.372;2022-11-18T13:47:32;49.90;;;30.55;;
23336;SDS011;11840;45.414;12.372;2022-11-18T13:50:03;46.75;;;30.80;;
23336;SDS011;11840;45.414;12.372;2022-11-18T13:55:25;52.50;;;30.35;;
23336;SDS011;11840;45.414;12.372;2022-11-18T13:57:56;44.92;;;28.52;;
23336;SDS011;11840;45.414;12.372;2022-11-18T14:00:26;45.03;;;31.27;;
23336;SDS011;11840;45.414;12.372;2022-11-18T14:02:54;45.33;;;30.77;;
23336;SDS011;11840;45.414;12.372;2022-11-18T14:05:20;49.45;;;30.77;;
23336;SDS011;11840;45.414;12.372;2022-11-18T14:10:28;46.03;;;29.77;;
23336;SDS011;11840;45.414;12.372;2022-11-18T14:12:57;46.13;;;31.38;;
23336;SDS011;11840;45.414;12.372;2022-11-18T14:17:54;42.28;;;30.77;;
23336;SDS011;11840;45.414;12.372;2022-11-18T14:20:20;41.42;;;30.23;;
23336;SDS011;11840;45.414;12.372;2022-11-18T14:22:46;46.38;;;30.25;;
23336;SDS011;11840;45.414;12.372;2022-11-18T14:25:18;44.78;;;29.92;;
23336;SDS011;11840;45.414;12.372;2022-11-18T14:27:45;45.55;;;30.38;;
23336;SDS011;11840;45.414;12.372;2022-11-18T14:30:31;46.00;;;30.85;;
23336;SDS011;11840;45.414;12.372;2022-11-18T14:35:39;43.65;;;29.80;;
23336;SDS011;11840;45.414;12.372;2022-11-18T14:38:12;41.78;;;29.30;;
23336;SDS011;11840;45.414;12.372;2022-11-18T14:40:39;45.23;;;29.37;;
23336;SDS011;11840;45.414;12.372;2022-11-18T14:43:04;45.05;;;29.63;;
23336;SDS011;11840;45.414;12.372;2022-11-18T14:45:30;41.60;;;29.58;;
23336;SDS011;11840;45.414;12.372;2022-11-18T14:47:56;40.85;;;28.90;;
23336;SDS011;11840;45.414;12.372;2022-11-18T14:50:22;43.50;;;29.60;;
23336;SDS011;11840;45.414;12.372;2022-11-18T14:52:48;43.10;;;29.88;;
23336;SDS011;11840;45.414;12.372;2022-11-18T14:55:13;44.22;;;29.95;;
23336;SDS011;11840;45.414;12.372;2022-11-18T14:57:39;43.60;;;29.95;;
23336;SDS011;11840;45.414;12.372;2022-11-18T15:00:05;44.40;;;29.83;;
23336;SDS011;11840;45.414;12.372;2022-11-18T15:02:31;45.55;;;32.00;;
23336;SDS011;11840;45.414;12.372;2022-11-18T15:04:57;44.65;;;30.10;;
23336;SDS011;11840;45.414;12.372;2022-11-18T15:07:24;44.30;;;29.75;;
23336;SDS011;11840;45.414;12.372;2022-11-18T15:09:50;42.90;;;29.30;;
23336;SDS011;11840;45.414;12.372;2022-11-18T15:12:16;49.42;;;32.03;;
23336;SDS011;11840;45.414;12.372;2022-11-18T15:14:42;46.38;;;30.50;;
23336;SDS011;11840;45.414;12.372;2022-11-18T15:17:09;48.42;;;29.90;;
23336;SDS011;11840;45.414;12.372;2022-11-18T15:19:36;44.33;;;31.75;;
23336;SDS011;11840;45.414;12.372;2022-11-18T15:22:02;43.53;;;29.95;;
23336;SDS011;11840;45.414;12.372;2022-11-18T15:24:28;44.88;;;30.85;;
23336;SDS011;11840;45.414;12.372;2022-11-18T15:26:54;48.55;;;31.58;;
23336;SDS011;11840;45.414;12.372;2022-11-18T15:29:21;47.90;;;31.10;;
23336;SDS011;11840;45.414;12.372;2022-11-18T15:31:48;45.90;;;31.48;;
23336;SDS011;11840;45.414;12.372;2022-11-18T15:34:15;40.95;;;29.02;;
23336;SDS011;11840;45.414;12.372;2022-11-18T15:36:41;48.45;;;30.13;;
23336;SDS011;11840;45.414;12.372;2022-11-18T15:39:07;40.75;;;29.35;;
23336;SDS011;11840;45.414;12.372;2022-11-18T15:41:33;44.88;;;30.13;;
23336;SDS011;11840;45.414;12.372;2022-11-18T15:43:59;43.03;;;29.80;;
23336;SDS011;11840;45.414;12.372;2022-11-18T15:46:25;43.35;;;29.27;;
23336;SDS011;11840;45.414;12.372;2022-11-18T15:48:55;43.70;;;30.52;;
23336;SDS011;11840;45.414;12.372;2022-11-18T15:51:22;42.03;;;28.45;;
23336;SDS011;11840;45.414;12.372;2022-11-18T15:53:48;38.88;;;29.25;;
23336;SDS011;11840;45.414;12.372;2022-11-18T15:58:43;40.22;;;28.13;;
23336;SDS011;11840;45.414;12.372;2022-11-18T16:01:10;43.97;;;29.00;;
23336;SDS011;11840;45.414;12.372;2022-11-18T16:03:36;39.20;;;27.60;;
23336;SDS011;11840;45.414;12.372;2022-11-18T16:06:02;42.13;;;28.92;;
23336;SDS011;11840;45.414;12.372;2022-11-18T16:08:28;41.50;;;29.65;;
23336;SDS011;11840;45.414;12.372;2022-11-18T16:10:56;39.38;;;28.60;;
23336;SDS011;11840;45.414;12.372;2022-11-18T16:13:40;40.97;;;29.10;;
23336;SDS011;11840;45.414;12.372;2022-11-18T16:16:06;44.55;;;30.92;;
23336;SDS011;11840;45.414;12.372;2022-11-18T16:18:32;41.22;;;29.92;;
23336;SDS011;11840;45.414;12.372;2022-11-18T16:20:59;48.72;;;32.67;;
23336;SDS011;11840;45.414;12.372;2022-11-18T16:23:25;43.63;;;31.30;;
23336;SDS011;11840;45.414;12.372;2022-11-18T16:25:54;44.80;;;30.33;;
23336;SDS011;11840;45.414;12.372;2022-11-18T16:28:20;44.83;;;30.35;;
23336;SDS011;11840;45.414;12.372;2022-11-18T16:30:46;43.10;;;30.92;;
23336;SDS011;11840;45.414;12.372;2022-11-18T16:33:30;45.70;;;30.88;;
23336;SDS011;11840;45.414;12.372;2022-11-18T16:35:57;46.60;;;31.27;;
23336;SDS011;11840;45.414;12.372;2022-11-18T16:38:23;44.95;;;31.88;;
23336;SDS011;11840;45.414;12.372;2022-11-18T16:40:58;42.25;;;30.95;;
23336;SDS011;11840;45.414;12.372;2022-11-18T16:43:24;47.45;;;32.72;;
23336;SDS011;11840;45.414;12.372;2022-11-18T16:45:51;43.65;;;32.58;;
23336;SDS011;11840;45.414;12.372;2022-11-18T16:48:17;47.35;;;31.85;;
23336;SDS011;11840;45.414;12.372;2022-11-18T16:50:43;46.65;;;30.33;;
23336;SDS011;11840;45.414;12.372;2022-11-18T16:53:09;41.90;;;30.95;;
23336;SDS011;11840;45.414;12.372;2022-11-18T16:55:35;46.65;;;31.58;;
23336;SDS011;11840;45.414;12.372;2022-11-18T16:58:01;40.45;;;30.80;;
23336;SDS011;11840;45.414;12.372;2022-11-18T17:00:27;44.75;;;31.67;;
23336;SDS011;11840;45.414;12.372;2022-11-18T17:02:53;43.17;;;30.73;;
23336;SDS011;11840;45.414;12.372;2022-11-18T17:05:19;43.20;;;31.90;;
23336;SDS011;11840;45.414;12.372;2022-11-18T17:07:45;42.17;;;31.58;;
23336;SDS011;11840;45.414;12.372;2022-11-18T17:10:11;42.90;;;30.67;;
23336;SDS011;11840;45.414;12.372;2022-11-18T17:12:45;46.15;;;32.30;;
23336;SDS011;11840;45.414;12.372;2022-11-18T17:15:11;47.08;;;32.30;;
23336;SDS011;11840;45.414;12.372;2022-11-18T17:17:37;44.33;;;32.20;;
23336;SDS011;11840;45.414;12.372;2022-11-18T17:20:03;42.92;;;31.60;;
23336;SDS011;11840;45.414;12.372;2022-11-18T17:22:29;49.05;;;34.00;;
23336;SDS011;11840;45.414;12.372;2022-11-18T17:24:54;45.60;;;32.22;;
23336;SDS011;11840;45.414;12.372;2022-11-18T17:27:21;45.45;;;32.95;;
23336;SDS011;11840;45.414;12.372;2022-11-18T17:29:47;42.45;;;32.35;;
23336;SDS011;11840;45.414;12.372;2022-11-18T17:32:15;48.85;;;32.88;;
23336;SDS011;11840;45.414;12.372;2022-11-18T17:34:41;47.53;;;32.50;;
23336;SDS011;11840;45.414;12.372;2022-11-18T17:37:08;46.42;;;33.60;;
23336;SDS011;11840;45.414;12.372;2022-11-18T17:39:34;52.40;;;33.42;;
23336;SDS011;11840;45.414;12.372;2022-11-18T17:42:00;47.42;;;33.00;;
23336;SDS011;11840;45.414;12.372;2022-11-18T17:44:47;48.60;;;32.47;;
23336;SDS011;11840;45.414;12.372;2022-11-18T17:47:13;46.72;;;32.05;;
23336;SDS011;11840;45.414;12.372;2022-11-18T17:49:39;43.92;;;31.65;;
23336;SDS011;11840;45.414;12.372;2022-11-18T17:52:05;47.45;;;31.88;;
23336;SDS011;11840;45.414;12.372;2022-11-18T17:54:31;45.15;;;32.78;;
23336;SDS011;11840;45.414;12.372;2022-11-18T17:56:57;45.25;;;32.58;;
23336;SDS011;11840;45.414;12.372;2022-11-18T17:59:23;47.20;;;32.45;;
23336;SDS011;11840;45.414;12.372;2022-11-18T18:01:49;47.22;;;32.38;;
23336;SDS011;11840;45.414;12.372;2022-11-18T18:04:16;45.50;;;31.20;;
23336;SDS011;11840;45.414;12.372;2022-11-18T18:06:46;45.85;;;32.78;;
23336;SDS011;11840;45.414;12.372;2022-11-18T18:09:13;49.85;;;33.63;;
23336;SDS011;11840;45.414;12.372;2022-11-18T18:11:39;71.40;;;49.55;;
23336;SDS011;11840;45.414;12.372;2022-11-18T18:14:05;71.15;;;47.78;;
23336;SDS011;11840;45.414;12.372;2022-11-18T18:16:46;45.08;;;33.60;;
23336;SDS011;11840;45.414;12.372;2022-11-18T18:19:16;46.20;;;32.15;;
23336;SDS011;11840;45.414;12.372;2022-11-18T18:21:43;48.60;;;33.10;;
23336;SDS011;11840;45.414;12.372;2022-11-18T18:24:09;48.10;;;33.83;;
23336;SDS011;11840;45.414;12.372;2022-11-18T18:26:35;48.55;;;32.90;;
23336;SDS011;11840;45.414;12.372;2022-11-18T18:29:02;46.28;;;33.63;;
23336;SDS011;11840;45.414;12.372;2022-11-18T18:31:27;49.10;;;33.92;;
23336;SDS011;11840;45.414;12.372;2022-11-18T18:33:54;46.88;;;33.17;;
23336;SDS011;11840;45.414;12.372;2022-11-18T18:36:19;44.80;;;32.75;;
23336;SDS011;11840;45.414;12.372;2022-11-18T18:38:45;49.22;;;34.05;;
23336;SDS011;11840;45.414;12.372;2022-11-18T18:41:13;52.10;;;34.53;;
23336;SDS011;11840;45.414;12.372;2022-11-18T18:43:39;46.72;;;32.85;;
23336;SDS011;11840;45.414;12.372;2022-11-18T18:46:09;54.10;;;33.97;;
23336;SDS011;11840;45.414;12.372;2022-11-18T18:49:03;45.75;;;33.33;;
23336;SDS011;11840;45.414;12.372;2022-11-18T18:51:30;47.05;;;33.05;;
23336;SDS011;11840;45.414;12.372;2022-11-18T18:53:57;51.88;;;34.60;;
23336;SDS011;11840;45.414;12.372;2022-11-18T18:56:23;45.63;;;33.35;;
23336;SDS011;11840;45.414;12.372;2022-11-18T18:58:49;45.45;;;33.20;;
23336;SDS011;11840;45.414;12.372;2022-11-18T19:01:16;45.20;;;32.42;;
23336;SDS011;11840;45.414;12.372;2022-11-18T19:03:42;48.80;;;33.42;;
23336;SDS011;11840;45.414;12.372;2022-11-18T19:06:15;45.58;;;32.88;;
23336;SDS011;11840;45.414;12.372;2022-11-18T19:08:41;51.80;;;33.85;;
23336;SDS011;11840;45.414;12.372;2022-11-18T19:11:07;52.95;;;35.50;;
23336;SDS011;11840;45.414;12.372;2022-11-18T19:13:33;57.25;;;37.15;;
23336;SDS011;11840;45.414;12.372;2022-11-18T19:16:05;52.55;;;34.38;;
23336;SDS011;11840;45.414;12.372;2022-11-18T19:18:34;82.82;;;58.92;;
23336;SDS011;11840;45.414;12.372;2022-11-18T19:21:00;91.60;;;64.07;;
23336;SDS011;11840;45.414;12.372;2022-11-18T19:23:25;55.78;;;38.92;;
23336;SDS011;11840;45.414;12.372;2022-11-18T19:25:58;50.13;;;37.10;;
23336;SDS011;11840;45.414;12.372;2022-11-18T19:28:24;50.22;;;35.70;;
23336;SDS011;11840;45.414;12.372;2022-11-18T19:30:51;50.03;;;34.92;;
23336;SDS011;11840;45.414;12.372;2022-11-18T19:33:17;52.85;;;34.80;;
23336;SDS011;11840;45.414;12.372;2022-11-18T19:35:43;51.20;;;36.20;;
23336;SDS011;11840;45.414;12.372;2022-11-18T19:38:08;48.22;;;35.60;;
23336;SDS011;11840;45.414;12.372;2022-11-18T19:40:34;52.30;;;36.28;;
23336;SDS011;11840;45.414;12.372;2022-11-18T19:43:01;50.72;;;35.55;;
23336;SDS011;11840;45.414;12.372;2022-11-18T19:45:27;51.95;;;35.65;;
23336;SDS011;11840;45.414;12.372;2022-11-18T19:47:53;49.08;;;34.95;;
23336;SDS011;11840;45.414;12.372;2022-11-18T19:50:18;51.92;;;36.30;;
23336;SDS011;11840;45.414;12.372;2022-11-18T19:52:46;50.97;;;35.95;;
23336;SDS011;11840;45.414;12.372;2022-11-18T19:55:12;50.70;;;36.10;;
23336;SDS011;11840;45.414;12.372;2022-11-18T19:57:38;51.67;;;36.30;;
23336;SDS011;11840;45.414;12.372;2022-11-18T20:00:03;49.60;;;34.63;;
23336;SDS011;11840;45.414;12.372;2022-11-18T20:02:35;51.28;;;37.55;;
23336;SDS011;11840;45.414;12.372;2022-11-18T20:05:02;52.15;;;35.78;;
23336;SDS011;11840;45.414;12.372;2022-11-18T20:07:46;53.30;;;35.92;;
23336;SDS011;11840;45.414;12.372;2022-11-18T20:10:12;53.38;;;36.25;;
23336;SDS011;11840;45.414;12.372;2022-11-18T20:12:38;56.95;;;37.63;;
23336;SDS011;11840;45.414;12.372;2022-11-18T20:15:04;56.55;;;37.63;;
23336;SDS011;11840;45.414;12.372;2022-11-18T20:17:31;132.40;;;93.45;;
23336;SDS011;11840;45.414;12.372;2022-11-18T20:19:57;67.07;;;44.92;;
23336;SDS011;11840;45.414;12.372;2022-11-18T20:22:24;56.67;;;40.88;;
23336;SDS011;11840;45.414;12.372;2022-11-18T20:24:50;52.88;;;36.88;;
23336;SDS011;11840;45.414;12.372;2022-11-18T20:27:16;53.28;;;36.95;;
23336;SDS011;11840;45.414;12.372;2022-11-18T20:29:43;52.10;;;35.08;;
23336;SDS011;11840;45.414;12.372;2022-11-18T20:32:09;50.67;;;33.60;;
23336;SDS011;11840;45.414;12.372;2022-11-18T20:34:35;47.78;;;33.60;;
23336;SDS011;11840;45.414;12.372;2022-11-18T20:37:04;48.60;;;33.92;;
23336;SDS011;11840;45.414;12.372;2022-11-18T20:39:30;46.55;;;32.53;;
23336;SDS011;11840;45.414;12.372;2022-11-18T20:41:56;48.45;;;32.92;;
23336;SDS011;11840;45.414;12.372;2022-11-18T20:44:40;48.00;;;33.63;;
23336;SDS011;11840;45.414;12.372;2022-11-18T20:47:06;45.83;;;32.97;;
23336;SDS011;11840;45.414;12.372;2022-11-18T20:49:32;45.60;;;32.97;;
23336;SDS011;11840;45.414;12.372;2022-11-18T20:51:58;50.83;;;36.17;;
23336;SDS011;11840;45.414;12.372;2022-11-18T20:54:24;48.42;;;34.92;;
23336;SDS011;11840;45.414;12.372;2022-11-18T20:56:51;51.45;;;34.65;;
23336;SDS011;11840;45.414;12.372;2022-11-18T20:59:16;49.83;;;34.13;;
23336;SDS011;11840;45.414;12.372;2022-11-18T21:01:43;49.83;;;33.50;;
23336;SDS011;11840;45.414;12.372;2022-11-18T21:04:10;48.20;;;34.58;;
23336;SDS011;11840;45.414;12.372;2022-11-18T21:06:35;45.85;;;32.42;;
23336;SDS011;11840;45.414;12.372;2022-11-18T21:09:03;45.10;;;31.30;;
23336;SDS011;11840;45.414;12.372;2022-11-18T21:11:29;49.25;;;33.10;;
23336;SDS011;11840;45.414;12.372;2022-11-18T21:13:55;47.90;;;32.80;;
23336;SDS011;11840;45.414;12.372;2022-11-18T21:16:39;48.65;;;32.42;;
23336;SDS011;11840;45.414;12.372;2022-11-18T21:19:05;46.40;;;32.63;;
23336;SDS011;11840;45.414;12.372;2022-11-18T21:21:32;46.25;;;32.38;;
23336;SDS011;11840;45.414;12.372;2022-11-18T21:24:28;46.20;;;32.47;;
23336;SDS011;11840;45.414;12.372;2022-11-18T21:26:55;45.75;;;30.65;;
23336;SDS011;11840;45.414;12.372;2022-11-18T21:29:22;47.03;;;32.53;;
23336;SDS011;11840;45.414;12.372;2022-11-18T21:31:48;49.17;;;34.22;;
23336;SDS011;11840;45.414;12.372;2022-11-18T21:34:15;49.35;;;34.30;;
23336;SDS011;11840;45.414;12.372;2022-11-18T21:36:41;49.95;;;33.78;;
23336;SDS011;11840;45.414;12.372;2022-11-18T21:39:07;48.00;;;32.33;;
23336;SDS011;11840;45.414;12.372;2022-11-18T21:41:33;49.15;;;33.03;;
23336;SDS011;11840;45.414;12.372;2022-11-18T21:43:59;49.92;;;34.25;;
23336;SDS011;11840;45.414;12.372;2022-11-18T21:46:25;48.35;;;32.30;;
23336;SDS011;11840;45.414;12.372;2022-11-18T21:48:52;49.67;;;32.60;;
23336;SDS011;11840;45.414;12.372;2022-11-18T21:51:19;46.53;;;32.97;;
23336;SDS011;11840;45.414;12.372;2022-11-18T21:53:45;52.28;;;32.97;;
23336;SDS011;11840;45.414;12.372;2022-11-18T21:56:11;44.95;;;31.70;;
23336;SDS011;11840;45.414;12.372;2022-11-18T21:58:37;44.95;;;32.08;;
23336;SDS011;11840;45.414;12.372;2022-11-18T22:01:07;46.05;;;32.42;;
23336;SDS011;11840;45.414;12.372;2022-11-18T22:03:34;46.40;;;32.00;;
23336;SDS011;11840;45.414;12.372;2022-11-18T22:06:00;47.15;;;33.67;;
23336;SDS011;11840;45.414;12.372;2022-11-18T22:08:27;47.58;;;33.13;;
23336;SDS011;11840;45.414;12.372;2022-11-18T22:10:52;50.72;;;34.70;;
23336;SDS011;11840;45.414;12.372;2022-11-18T22:13:18;51.85;;;35.88;;
23336;SDS011;11840;45.414;12.372;2022-11-18T22:15:44;53.65;;;36.40;;
23336;SDS011;11840;45.414;12.372;2022-11-18T22:18:10;54.70;;;36.13;;
23336;SDS011;11840;45.414;12.372;2022-11-18T22:20:36;56.85;;;38.50;;
23336;SDS011;11840;45.414;12.372;2022-11-18T22:23:02;57.65;;;38.65;;
23336;SDS011;11840;45.414;12.372;2022-11-18T22:25:28;55.10;;;37.42;;
23336;SDS011;11840;45.414;12.372;2022-11-18T22:27:54;62.10;;;38.90;;
23336;SDS011;11840;45.414;12.372;2022-11-18T22:30:21;61.83;;;39.22;;
23336;SDS011;11840;45.414;12.372;2022-11-18T22:32:47;56.95;;;39.67;;
23336;SDS011;11840;45.414;12.372;2022-11-18T22:35:12;60.20;;;38.47;;